createdAt,value
2017-04-03T00:02:07.402Z,0
2017-04-03T00:12:07.489Z,0
2017-04-03T00:22:07.416Z,0
2017-04-03T00:32:07.386Z,0
2017-04-03T00:42:07.451Z,0
2017-04-03T00:52:07.406Z,0
2017-04-03T01:02:07.400Z,0
2017-04-03T01:12:07.417Z,0
2017-04-03T01:22:07.409Z,0
2017-04-03T01:32:07.516Z,0
2017-04-03T01:42:07.404Z,0
2017-04-03T01:52:07.379Z,0
2017-04-03T02:02:07.441Z,0
2017-04-03T02:12:07.379Z,0
2017-04-03T02:22:07.374Z,0
2017-04-03T02:32:07.422Z,0
2017-04-03T02:42:07.402Z,0
2017-04-03T02:52:07.489Z,0
2017-04-03T03:02:07.400Z,0
2017-04-03T03:12:07.360Z,0
2017-04-03T03:22:07.447Z,0
2017-04-03T03:32:07.394Z,0
2017-04-03T03:42:07.345Z,0
2017-04-03T03:52:07.415Z,0
2017-04-03T04:02:07.381Z,0
2017-04-03T04:12:07.343Z,0
2017-04-03T04:22:07.419Z,0
2017-04-03T04:32:07.368Z,0
2017-04-03T04:42:07.427Z,8
2017-04-03T04:52:07.408Z,20
2017-04-03T05:02:07.344Z,68
2017-04-03T05:12:07.407Z,164
2017-04-03T05:22:07.380Z,268
2017-04-03T05:32:07.336Z,404
2017-04-03T05:42:07.814Z,528
2017-04-03T05:52:07.338Z,812
2017-04-03T06:02:07.444Z,1032
2017-04-03T06:12:07.415Z,1232
2017-04-03T06:22:07.345Z,1516
2017-04-03T06:32:07.402Z,1768
2017-04-03T06:42:07.385Z,2184
2017-04-03T06:52:07.340Z,2340
2017-04-03T07:02:07.402Z,2348
2017-04-03T07:12:07.425Z,2976
2017-04-03T07:22:07.324Z,3016
2017-04-03T07:32:08.093Z,3220
2017-04-03T07:52:07.396Z,4724
2017-04-03T08:02:07.280Z,5064
2017-04-03T08:12:07.279Z,5192
2017-04-03T08:22:07.312Z,5280
2017-04-03T08:32:07.309Z,6560
2017-04-03T08:42:07.305Z,8660
2017-04-03T08:52:07.313Z,10612
2017-04-03T09:02:07.309Z,10088
2017-04-03T09:12:07.294Z,17064
2017-04-03T09:22:07.296Z,16668
2017-04-03T09:32:07.298Z,16108
2017-04-03T09:42:07.307Z,17932
2017-04-03T09:52:07.285Z,18592
2017-04-03T10:02:07.279Z,17684
2017-04-03T10:12:07.322Z,14372
2017-04-03T10:22:07.303Z,16832
2017-04-03T10:32:07.288Z,14248
2017-04-03T10:42:07.301Z,9052
2017-04-03T10:52:07.307Z,10364
2017-04-03T11:02:07.315Z,6320
2017-04-03T11:12:07.294Z,4576
2017-04-03T11:22:07.314Z,4812
2017-04-03T11:32:07.440Z,4512
2017-04-03T11:42:07.280Z,4900
2017-04-03T11:52:17.093Z,4996
2017-04-03T12:02:07.315Z,4860
2017-04-03T12:12:07.301Z,4124
2017-04-03T12:22:07.325Z,4224
2017-04-03T12:52:07.523Z,6100
2017-04-03T13:02:07.844Z,9664
2017-04-03T13:12:07.517Z,5720
2017-04-03T13:22:07.374Z,4248
2017-04-03T13:32:17.433Z,3812
2017-04-03T13:42:13.832Z,5188
2017-04-03T13:52:07.408Z,8400
2017-04-03T14:02:07.420Z,9592
2017-04-03T14:12:07.364Z,5648
2017-04-03T14:22:07.502Z,8600
2017-04-03T14:32:07.382Z,7724
2017-04-03T14:42:07.709Z,8716
2017-04-03T14:52:07.434Z,5452
2017-04-03T15:02:07.374Z,4496
2017-04-03T15:12:07.331Z,3864
2017-04-03T15:22:07.401Z,4804
2017-04-03T15:32:07.706Z,4516
2017-04-03T15:42:07.428Z,5884
2017-04-03T15:52:07.481Z,5508
2017-04-03T16:02:07.404Z,4360
2017-04-03T16:12:07.395Z,3912
2017-04-03T16:22:09.769Z,4144
2017-04-03T16:32:07.414Z,4876
2017-04-03T16:42:07.368Z,4080
2017-04-03T16:52:07.329Z,2920
2017-04-03T17:02:07.420Z,2188
2017-04-03T17:12:08.383Z,1968
2017-04-03T17:22:07.363Z,1772
2017-04-03T17:32:07.403Z,1432
2017-04-03T17:42:07.331Z,1020
2017-04-03T17:52:10.722Z,644
2017-04-03T18:02:07.423Z,344
2017-04-03T18:12:09.419Z,124
2017-04-03T18:22:18.710Z,28
2017-04-03T18:32:07.406Z,8
2017-04-03T18:42:07.353Z,0
2017-04-03T18:52:07.334Z,0
2017-04-03T19:02:07.337Z,0
2017-04-03T19:12:07.299Z,0
2017-04-03T19:22:07.329Z,0
2017-04-03T19:32:07.364Z,0
2017-04-03T19:42:07.350Z,0
2017-04-03T19:52:07.295Z,0
2017-04-03T20:02:07.314Z,0
2017-04-03T20:12:07.295Z,0
2017-04-03T20:22:07.353Z,0
2017-04-03T20:32:08.632Z,0
2017-04-03T20:42:08.202Z,0
2017-04-03T20:52:07.471Z,0
2017-04-03T21:02:07.436Z,0
2017-04-03T21:12:49.974Z,0
2017-04-03T21:22:35.644Z,0
2017-04-03T21:32:44.291Z,0
2017-04-03T21:42:07.496Z,0
2017-04-03T21:52:07.385Z,0
2017-04-03T22:02:16.229Z,0
2017-04-03T22:22:07.375Z,0
2017-04-03T22:32:07.273Z,0
2017-04-03T22:42:07.345Z,0
2017-04-03T23:02:07.344Z,0
2017-04-03T23:12:07.318Z,0
2017-04-03T23:22:07.262Z,0
2017-04-03T23:32:07.342Z,0
2017-04-03T23:42:07.288Z,0
2017-04-03T23:52:07.219Z,0
